24h
CUSTOMER SERVICE:
Saartelennuliinid: +372 58856336 (24/7)
Airport ticket info +372 6058887; +372 55603687

02.01.2019 õhtune Transaviabaltika lend KTB676 Tallinn - Kärdla ja KTB677 Kärdla – Tallinn väljalend jääb ära. Lennu ära jäämise põhjustab ilmastikuolu Kärdla lennuväljal. Lennuväljal puhuva tuule tugevuse ja lennuraja katte haardeteguri koosmõju ei võimalda lennuki ohutut maandumist. Reisijatele võimaldatakse tasuta lennupileti ümberbroneerimine reisija soovi kohasele mõnele teisele Tallinn-Kärdla või Kärdla-Tallinn lennule. Reisijatele kes ei soovi lennupileti ümberbroneerimist teisele lennule tagastatakse piletiraha. Oma soovist tuleb teada anda e-mailile [email protected] Lisainformatsioon telefonil 58856336.

EEKA Kärdla lennuväli FCEO32 EETN 021200

TAF EEKA 021200Z 0213/0219 35037G47KT 7000 DRSN BKN025

TEMPO 0213/0215 1200 +SN BLSN BKN010 BKN020 BECMG 0218/0219 35025G35KT SCT030=

METAR EEKA 021350Z 36038G49KT 9999 DRSN BKN027 M01/M04 Q1009=

Date: 
02/01/2019